Terminal Aerodrome Forecast
Issued by NWS

Home | Current Version | Previous Version | Text Only | Print | Product List | Glossary On
Versions: 1 2 3 4 5 6 7 8 9 10 11 12
677
FTUS41 KBTV 221737
TAFSLK
TAF
KSLK 221737Z 2218/2318 VRB03KT P6SM BKN140
     FM230100 19004KT P6SM OVC030
     FM230300 21004KT 4SM BR VCSH OVC025
     FM230700 21005KT 4SM BR OVC010
     FM231100 22012KT P6SM OVC015
     FM231200 22012KT P6SM VCSH BKN015=

USA.gov is the U.S. government's official web portal to all federal, state and local government web resources and services.